Time;durP1;ratioP1;P1;durP2;ratioP2;P2;SDS_P1;SDS_P2;PMS_P1;PMS_P2;Temp;Humidity;BMP_temperature;BMP_pressure;BME280_temperature;BME280_humidity;BME280_pressure;Samples;Min_cycle;Max_cycle;Signal;HPM_P1;HPM_P2
2023/06/30 00:01:34;;;;;;;9.73;7.07;;;;;;;;;;5045577;28;20301;-63
2023/06/30 00:04:03;;;;;;;13.30;7.70;;;;;;;;;;5040981;28;20292;-63
2023/06/30 00:06:32;;;;;;;9.67;6.83;;;;;;;;;;5040744;28;20216;-63
2023/06/30 00:09:00;;;;;;;10.90;6.43;;;;;;;;;;5040591;28;20214;-62
2023/06/30 00:11:28;;;;;;;10.20;6.43;;;;;;;;;;5040398;28;20310;-63
2023/06/30 00:13:55;;;;;;;12.77;6.43;;;;;;;;;;5053483;28;20308;-63
2023/06/30 00:16:23;;;;;;;9.40;6.40;;;;;;;;;;5054976;28;20215;-63
2023/06/30 00:18:55;;;;;;;11.53;6.50;;;;;;;;;;5040750;28;20680;-61
2023/06/30 00:21:23;;;;;;;10.37;6.40;;;;;;;;;;5040427;28;20262;-61
2023/06/30 00:23:52;;;;;;;9.80;6.63;;;;;;;;;;5040352;28;20260;-61
2023/06/30 00:26:20;;;;;;;8.30;5.77;;;;;;;;;;5047350;28;20214;-61
2023/06/30 00:28:48;;;;;;;10.20;6.83;;;;;;;;;;5060442;28;20210;-61
2023/06/30 00:31:15;;;;;;;10.07;6.67;;;;;;;;;;5060113;28;20316;-61
2023/06/30 00:33:43;;;;;;;9.77;5.97;;;;;;;;;;5059814;28;20238;-61
2023/06/30 00:36:11;;;;;;;9.97;6.27;;;;;;;;;;5060245;28;20217;-61
2023/06/30 00:38:39;;;;;;;9.37;6.07;;;;;;;;;;5059936;28;20572;-61
2023/06/30 00:41:08;;;;;;;9.27;6.37;;;;;;;;;;5051977;28;20223;-61
2023/06/30 00:43:37;;;;;;;9.23;6.40;;;;;;;;;;5039925;28;20287;-61
2023/06/30 00:46:05;;;;;;;9.60;6.27;;;;;;;;;;5039744;28;20207;-61
2023/06/30 00:48:33;;;;;;;11.23;6.73;;;;;;;;;;5040060;28;20213;-61
2023/06/30 00:51:01;;;;;;;12.50;7.43;;;;;;;;;;5039878;28;20228;-61
2023/06/30 00:53:28;;;;;;;29.30;19.27;;;;;;;;;;5039959;28;20219;-61
2023/06/30 00:55:56;;;;;;;12.47;7.80;;;;;;;;;;5040034;28;20218;-61
2023/06/30 00:58:25;;;;;;;14.50;9.03;;;;;;;;;;5039706;28;20218;-62
2023/06/30 01:00:56;;;;;;;13.50;9.17;;;;;;;;;;5047482;28;20232;-63
2023/06/30 01:03:28;;;;;;;14.70;8.73;;;;;;;;;;5039854;28;20208;-62
2023/06/30 01:05:57;;;;;;;16.33;9.13;;;;;;;;;;5039378;28;20211;-62
2023/06/30 01:08:29;;;;;;;14.70;8.83;;;;;;;;;;5039716;28;20270;-62
2023/06/30 01:10:57;;;;;;;12.73;8.00;;;;;;;;;;5039779;28;20228;-62
2023/06/30 01:13:26;;;;;;;13.73;8.77;;;;;;;;;;5049347;28;20205;-63
2023/06/30 01:15:55;;;;;;;11.30;7.53;;;;;;;;;;5045451;28;20238;-63
2023/06/30 01:18:23;;;;;;;14.23;8.07;;;;;;;;;;5039641;28;20292;-63
2023/06/30 01:20:51;;;;;;;12.33;7.13;;;;;;;;;;5039301;28;20254;-63
2023/06/30 01:23:23;;;;;;;12.20;7.53;;;;;;;;;;5039598;28;20290;-63
2023/06/30 01:25:51;;;;;;;10.50;6.30;;;;;;;;;;5039405;28;20204;-63
2023/06/30 01:28:19;;;;;;;9.33;6.03;;;;;;;;;;5039532;28;20207;-63
2023/06/30 01:30:50;;;;;;;9.77;6.37;;;;;;;;;;5038857;28;20228;-63
2023/06/30 01:33:18;;;;;;;11.77;7.47;;;;;;;;;;5039062;28;20663;-63
2023/06/30 01:35:45;;;;;;;12.37;8.07;;;;;;;;;;5038974;28;20599;-63
2023/06/30 01:38:13;;;;;;;10.93;6.87;;;;;;;;;;5038971;28;20754;-63
2023/06/30 01:40:41;;;;;;;11.80;7.30;;;;;;;;;;5044974;28;20236;-63
2023/06/30 01:43:09;;;;;;;9.67;6.20;;;;;;;;;;5038967;28;20213;-63
2023/06/30 01:45:37;;;;;;;12.23;6.73;;;;;;;;;;5038909;28;20661;-63
2023/06/30 01:48:07;;;;;;;13.50;6.80;;;;;;;;;;5039153;28;20210;-63
2023/06/30 01:50:35;;;;;;;10.57;6.50;;;;;;;;;;5038896;28;20233;-63
2023/06/30 01:53:03;;;;;;;12.67;6.90;;;;;;;;;;5038877;28;20213;-63
2023/06/30 01:55:32;;;;;;;11.00;6.93;;;;;;;;;;5038757;28;20258;-63
2023/06/30 01:58:00;;;;;;;10.17;6.47;;;;;;;;;;5038862;28;20288;-63
2023/06/30 02:00:28;;;;;;;10.33;6.10;;;;;;;;;;5047459;28;20289;-63
2023/06/30 02:02:56;;;;;;;8.20;5.73;;;;;;;;;;5038782;28;20210;-63
2023/06/30 02:05:25;;;;;;;9.50;5.70;;;;;;;;;;5038542;28;20205;-63
2023/06/30 02:07:53;;;;;;;9.70;5.67;;;;;;;;;;5038505;28;20215;-63
2023/06/30 02:10:21;;;;;;;9.43;5.30;;;;;;;;;;5038629;28;20240;-63
2023/06/30 02:12:48;;;;;;;8.23;5.00;;;;;;;;;;5043320;28;20235;-63
2023/06/30 02:15:16;;;;;;;8.10;5.27;;;;;;;;;;5056700;28;20247;-63
2023/06/30 02:17:44;;;;;;;7.10;4.63;;;;;;;;;;5037717;28;20219;-63
2023/06/30 02:20:13;;;;;;;6.73;4.63;;;;;;;;;;5038480;28;20226;-63
2023/06/30 02:22:42;;;;;;;8.20;4.87;;;;;;;;;;5038022;28;20210;-63
2023/06/30 02:25:10;;;;;;;8.47;4.97;;;;;;;;;;5038455;28;20711;-63
2023/06/30 02:27:37;;;;;;;8.53;5.73;;;;;;;;;;5038045;28;20234;-63
2023/06/30 02:30:07;;;;;;;6.40;4.27;;;;;;;;;;5037967;28;20258;-63
2023/06/30 02:32:37;;;;;;;8.37;4.93;;;;;;;;;;5037796;28;20569;-63
2023/06/30 02:35:06;;;;;;;7.07;4.93;;;;;;;;;;5037986;28;20581;-63
2023/06/30 02:37:34;;;;;;;7.63;5.03;;;;;;;;;;5037990;28;20212;-63
2023/06/30 02:40:04;;;;;;;6.03;4.27;;;;;;;;;;5042217;28;20221;-63
2023/06/30 02:42:32;;;;;;;7.73;4.40;;;;;;;;;;5038965;28;20209;-63
2023/06/30 02:44:59;;;;;;;9.70;5.10;;;;;;;;;;5037845;28;20570;-63
2023/06/30 02:47:27;;;;;;;8.53;5.33;;;;;;;;;;5037634;28;20326;-63
2023/06/30 02:49:55;;;;;;;10.20;6.17;;;;;;;;;;5037580;28;20311;-63
2023/06/30 02:52:23;;;;;;;8.67;4.83;;;;;;;;;;5037938;28;20208;-63
2023/06/30 02:54:50;;;;;;;6.90;4.20;;;;;;;;;;5037643;28;20233;-63
2023/06/30 02:57:20;;;;;;;7.53;4.23;;;;;;;;;;5037943;28;20294;-63
2023/06/30 02:59:47;;;;;;;7.20;4.27;;;;;;;;;;5045648;28;20233;-63
2023/06/30 03:02:15;;;;;;;6.50;4.17;;;;;;;;;;5037460;28;20293;-63
2023/06/30 03:04:43;;;;;;;8.70;4.47;;;;;;;;;;5037720;28;20208;-63
2023/06/30 03:07:11;;;;;;;8.90;3.83;;;;;;;;;;5037797;28;20226;-64
2023/06/30 03:09:39;;;;;;;6.57;3.90;;;;;;;;;;5037396;28;20210;-64
2023/06/30 03:12:07;;;;;;;8.23;4.63;;;;;;;;;;5037544;28;20624;-63
2023/06/30 03:14:36;;;;;;;7.53;4.67;;;;;;;;;;5053891;28;20287;-61
2023/06/30 03:17:04;;;;;;;8.83;4.70;;;;;;;;;;5037605;28;20213;-63
2023/06/30 03:19:32;;;;;;;9.20;6.07;;;;;;;;;;5037257;28;20219;-67
2023/06/30 03:22:00;;;;;;;7.63;5.10;;;;;;;;;;5042287;28;20287;-66
2023/06/30 03:24:28;;;;;;;10.90;5.50;;;;;;;;;;5045160;28;20202;-66
2023/06/30 03:26:55;;;;;;;8.43;5.13;;;;;;;;;;5055783;28;20199;-66
2023/06/30 03:29:23;;;;;;;9.37;5.13;;;;;;;;;;5059286;28;20202;-66
2023/06/30 03:31:52;;;;;;;7.90;5.10;;;;;;;;;;5059786;28;20277;-66
2023/06/30 03:34:20;;;;;;;12.23;5.30;;;;;;;;;;5059153;28;20201;-66
2023/06/30 03:36:49;;;;;;;9.27;5.77;;;;;;;;;;5059886;28;20228;-67
2023/06/30 03:39:16;;;;;;;7.90;5.07;;;;;;;;;;5060924;28;20212;-66
2023/06/30 03:41:45;;;;;;;8.67;5.20;;;;;;;;;;5060799;28;20221;-65
2023/06/30 03:44:13;;;;;;;8.27;4.97;;;;;;;;;;5059095;28;20255;-65
2023/06/30 03:46:41;;;;;;;7.83;4.73;;;;;;;;;;5058245;28;20564;-65
2023/06/30 03:49:11;;;;;;;11.07;6.20;;;;;;;;;;5057573;28;20311;-65
2023/06/30 03:51:38;;;;;;;8.10;5.40;;;;;;;;;;5056137;28;20233;-63
2023/06/30 03:54:06;;;;;;;7.53;4.67;;;;;;;;;;5060146;28;20204;-63
2023/06/30 03:56:36;;;;;;;6.87;5.13;;;;;;;;;;5057207;28;20225;-62
2023/06/30 03:59:04;;;;;;;9.53;5.63;;;;;;;;;;5058569;28;20589;-62
2023/06/30 04:01:33;;;;;;;14.03;6.40;;;;;;;;;;5057789;28;20575;-62
2023/06/30 04:04:02;;;;;;;9.20;5.47;;;;;;;;;;5060520;28;20298;-62
2023/06/30 04:06:33;;;;;;;9.63;5.07;;;;;;;;;;5058340;28;20192;-62
2023/06/30 04:09:01;;;;;;;13.47;7.57;;;;;;;;;;5059034;28;20203;-62
2023/06/30 04:11:28;;;;;;;10.30;5.10;;;;;;;;;;5058206;28;20230;-62
2023/06/30 04:13:59;;;;;;;8.33;5.67;;;;;;;;;;5059073;28;20672;-62
2023/06/30 04:16:26;;;;;;;9.87;6.03;;;;;;;;;;5055664;28;20222;-62
2023/06/30 04:18:54;;;;;;;13.33;5.53;;;;;;;;;;5057408;28;20222;-62
2023/06/30 04:21:22;;;;;;;9.97;5.63;;;;;;;;;;5059226;28;20222;-62
2023/06/30 04:23:52;;;;;;;10.50;5.33;;;;;;;;;;5057547;28;20210;-62
2023/06/30 04:26:20;;;;;;;11.83;5.47;;;;;;;;;;5058409;28;20202;-62
2023/06/30 04:28:48;;;;;;;8.60;4.93;;;;;;;;;;5058098;28;20203;-62
2023/06/30 04:31:15;;;;;;;10.60;5.83;;;;;;;;;;5059852;28;20234;-62
2023/06/30 04:33:43;;;;;;;8.67;5.50;;;;;;;;;;5057144;28;20226;-62
2023/06/30 04:36:11;;;;;;;8.87;5.03;;;;;;;;;;5048260;28;20698;-64
2023/06/30 04:38:39;;;;;;;9.90;5.33;;;;;;;;;;5038431;28;20207;-62
2023/06/30 04:41:08;;;;;;;10.40;5.23;;;;;;;;;;5040286;28;20230;-62
2023/06/30 04:43:36;;;;;;;8.93;5.57;;;;;;;;;;5039327;28;20212;-62
2023/06/30 04:46:04;;;;;;;7.23;4.97;;;;;;;;;;5039934;28;20290;-62
2023/06/30 04:48:32;;;;;;;10.60;5.90;;;;;;;;;;5039951;28;20207;-62
2023/06/30 04:50:59;;;;;;;8.20;5.83;;;;;;;;;;5039927;28;20647;-64
2023/06/30 04:53:27;;;;;;;9.40;5.07;;;;;;;;;;5039883;28;20231;-62
2023/06/30 04:55:55;;;;;;;7.97;4.93;;;;;;;;;;5039666;28;20223;-62
2023/06/30 04:58:24;;;;;;;9.97;5.77;;;;;;;;;;5040093;28;20212;-62
2023/06/30 05:00:52;;;;;;;9.40;5.80;;;;;;;;;;5041130;28;20688;-62
2023/06/30 05:03:20;;;;;;;9.53;5.37;;;;;;;;;;5039677;28;20251;-62
2023/06/30 05:05:47;;;;;;;8.80;5.40;;;;;;;;;;5039799;28;20274;-62
2023/06/30 05:08:15;;;;;;;11.20;5.63;;;;;;;;;;5039960;28;20211;-64
2023/06/30 05:10:43;;;;;;;7.30;5.20;;;;;;;;;;5039642;28;20693;-63
2023/06/30 05:13:11;;;;;;;8.77;5.73;;;;;;;;;;5047512;28;20207;-65
2023/06/30 05:15:40;;;;;;;8.30;5.83;;;;;;;;;;5047849;28;20220;-69
2023/06/30 05:18:08;;;;;;;12.50;6.20;;;;;;;;;;5039361;28;20668;-64
2023/06/30 05:20:38;;;;;;;9.30;5.97;;;;;;;;;;5053780;28;20223;-64
2023/06/30 05:23:06;;;;;;;12.20;6.63;;;;;;;;;;5055747;28;20577;-63
2023/06/30 05:25:34;;;;;;;12.70;7.30;;;;;;;;;;5056301;28;20287;-62
2023/06/30 05:28:03;;;;;;;10.17;6.63;;;;;;;;;;5056480;28;20232;-64
2023/06/30 05:30:31;;;;;;;10.90;6.23;;;;;;;;;;5057193;28;20223;-64
2023/06/30 05:33:00;;;;;;;12.90;6.27;;;;;;;;;;5056623;28;20240;-63
2023/06/30 05:35:28;;;;;;;14.03;7.07;;;;;;;;;;5055866;28;20203;-64
2023/06/30 05:37:57;;;;;;;11.90;6.87;;;;;;;;;;5055200;28;20226;-64
2023/06/30 05:40:27;;;;;;;11.10;6.73;;;;;;;;;;5055878;28;20255;-63
2023/06/30 05:42:55;;;;;;;9.87;6.93;;;;;;;;;;5057613;28;20195;-62
2023/06/30 05:45:22;;;;;;;10.83;6.63;;;;;;;;;;5053553;28;20200;-63
2023/06/30 05:47:50;;;;;;;9.87;6.80;;;;;;;;;;5057983;28;20207;-63
2023/06/30 05:50:21;;;;;;;12.73;7.87;;;;;;;;;;5053625;28;20229;-63
2023/06/30 05:52:49;;;;;;;14.43;7.30;;;;;;;;;;5056193;28;20199;-63
2023/06/30 05:55:17;;;;;;;15.73;7.37;;;;;;;;;;5053295;28;20260;-63
2023/06/30 05:57:45;;;;;;;9.80;6.93;;;;;;;;;;5058612;28;20229;-63
2023/06/30 06:00:13;;;;;;;11.43;7.60;;;;;;;;;;5053687;28;20607;-63
2023/06/30 06:02:41;;;;;;;13.40;7.23;;;;;;;;;;5038658;28;20217;-63
2023/06/30 06:05:09;;;;;;;10.37;6.47;;;;;;;;;;5038550;28;20210;-64
2023/06/30 06:07:40;;;;;;;11.77;7.83;;;;;;;;;;5038574;28;20214;-63
2023/06/30 06:10:08;;;;;;;16.63;7.97;;;;;;;;;;5039621;28;20233;-62
2023/06/30 06:12:36;;;;;;;14.13;7.43;;;;;;;;;;5044591;28;20209;-64
2023/06/30 06:15:04;;;;;;;14.63;8.67;;;;;;;;;;5046068;28;20207;-63
2023/06/30 06:17:34;;;;;;;16.73;9.60;;;;;;;;;;5052981;28;20223;-63
2023/06/30 06:20:04;;;;;;;14.90;8.10;;;;;;;;;;5057138;28;20218;-63
2023/06/30 06:22:32;;;;;;;13.57;8.40;;;;;;;;;;5044147;28;20255;-62
2023/06/30 06:25:20;;;;;;;15.20;8.73;;;;;;;;;;5055561;28;20202;-62
2023/06/30 06:27:57;;;;;;;20.00;10.37;;;;;;;;;;5052589;28;20283;-63
2023/06/30 06:30:26;;;;;;;17.30;9.20;;;;;;;;;;5054744;28;20567;-63
2023/06/30 06:32:54;;;;;;;17.73;9.00;;;;;;;;;;5055872;28;20287;-63
2023/06/30 06:35:22;;;;;;;15.77;9.17;;;;;;;;;;5057383;28;20216;-64
2023/06/30 06:37:49;;;;;;;17.17;8.80;;;;;;;;;;5056942;28;20318;-63
2023/06/30 06:40:19;;;;;;;13.97;8.20;;;;;;;;;;5054812;28;20229;-63
2023/06/30 06:42:46;;;;;;;17.17;9.73;;;;;;;;;;5056244;28;20677;-63
2023/06/30 06:45:14;;;;;;;14.30;9.07;;;;;;;;;;5054088;28;20694;-64
2023/06/30 06:48:00;;;;;;;18.33;9.60;;;;;;;;;;5037904;28;20664;-63
2023/06/30 06:50:28;;;;;;;18.93;8.90;;;;;;;;;;5057196;28;20312;-63
2023/06/30 06:52:56;;;;;;;16.33;9.37;;;;;;;;;;5056854;28;20285;-63
2023/06/30 06:55:25;;;;;;;76.17;45.20;;;;;;;;;;5054882;28;20200;-76
2023/06/30 06:57:53;;;;;;;40.10;26.83;;;;;;;;;;5055470;28;20236;-76
2023/06/30 07:00:21;;;;;;;35.83;23.20;;;;;;;;;;5047870;28;20230;-77
2023/06/30 07:02:49;;;;;;;39.70;24.10;;;;;;;;;;5040065;28;20208;-77
2023/06/30 07:05:17;;;;;;;27.50;19.07;;;;;;;;;;5043164;28;20213;-77
2023/06/30 07:07:45;;;;;;;25.97;15.37;;;;;;;;;;5056097;28;20622;-78
2023/06/30 07:10:12;;;;;;;21.63;14.27;;;;;;;;;;5055621;28;20251;-77
2023/06/30 07:12:41;;;;;;;23.53;14.17;;;;;;;;;;5051629;28;20203;-77
2023/06/30 07:15:10;;;;;;;18.60;11.77;;;;;;;;;;5052830;28;20209;-76
2023/06/30 07:17:37;;;;;;;16.07;10.00;;;;;;;;;;5053130;28;20278;-78
2023/06/30 07:20:06;;;;;;;17.23;10.50;;;;;;;;;;5048143;28;20230;-74
2023/06/30 07:22:34;;;;;;;17.53;10.27;;;;;;;;;;5056631;28;20199;-78
2023/06/30 07:25:02;;;;;;;16.83;10.73;;;;;;;;;;5054492;28;20211;-79
2023/06/30 07:27:30;;;;;;;14.33;9.17;;;;;;;;;;5056689;28;20207;-77
2023/06/30 07:29:59;;;;;;;12.87;8.70;;;;;;;;;;5056958;28;20231;-76
2023/06/30 07:32:27;;;;;;;16.67;8.90;;;;;;;;;;5056802;28;20231;-76
2023/06/30 07:34:55;;;;;;;14.33;9.40;;;;;;;;;;5057148;28;20654;-76
2023/06/30 07:37:22;;;;;;;14.97;8.60;;;;;;;;;;5056814;28;20241;-76
2023/06/30 07:39:50;;;;;;;13.53;8.57;;;;;;;;;;5043909;28;20231;-75
2023/06/30 07:42:18;;;;;;;13.90;8.63;;;;;;;;;;5051984;28;20212;-77
2023/06/30 07:44:46;;;;;;;16.27;8.40;;;;;;;;;;5057100;28;20206;-74
2023/06/30 07:47:15;;;;;;;13.47;8.40;;;;;;;;;;5056926;28;20287;-78
2023/06/30 07:49:43;;;;;;;18.73;9.60;;;;;;;;;;5056822;28;20308;-77
2023/06/30 07:52:11;;;;;;;13.27;7.93;;;;;;;;;;5056729;28;20213;-72
2023/06/30 07:54:40;;;;;;;15.37;9.20;;;;;;;;;;5057130;28;20211;-75
2023/06/30 07:57:07;;;;;;;13.80;8.67;;;;;;;;;;5056636;28;20216;-75
2023/06/30 07:59:35;;;;;;;14.67;8.77;;;;;;;;;;5052726;28;20294;-77
2023/06/30 08:02:03;;;;;;;16.10;8.60;;;;;;;;;;5050788;28;20285;-78
2023/06/30 08:04:33;;;;;;;16.30;8.97;;;;;;;;;;5053929;28;20270;-78
2023/06/30 08:07:09;;;;;;;16.77;9.27;;;;;;;;;;5055444;28;20292;-78
2023/06/30 08:09:43;;;;;;;15.00;8.40;;;;;;;;;;5054900;28;20213;-72
2023/06/30 08:12:11;;;;;;;14.70;8.60;;;;;;;;;;5054084;28;20200;-78
2023/06/30 08:14:39;;;;;;;15.23;8.83;;;;;;;;;;5054259;28;20197;-77
2023/06/30 08:17:06;;;;;;;14.23;8.90;;;;;;;;;;5056162;28;20699;-76
2023/06/30 08:19:41;;;;;;;13.63;8.70;;;;;;;;;;5059528;28;20250;-76
2023/06/30 08:22:18;;;;;;;16.83;9.00;;;;;;;;;;5056427;28;20290;-75
2023/06/30 08:24:46;;;;;;;16.27;8.90;;;;;;;;;;5059942;28;20203;-67
2023/06/30 08:27:16;;;;;;;15.07;8.67;;;;;;;;;;5060282;28;21004;-68
2023/06/30 08:29:44;;;;;;;16.70;9.63;;;;;;;;;;5060045;28;20252;-67
2023/06/30 08:32:12;;;;;;;13.47;8.93;;;;;;;;;;5047257;28;21130;-67
2023/06/30 08:34:41;;;;;;;17.93;8.83;;;;;;;;;;5051006;28;20211;-67
2023/06/30 08:37:09;;;;;;;14.77;9.03;;;;;;;;;;5039924;28;20216;-68
2023/06/30 08:39:38;;;;;;;16.90;9.40;;;;;;;;;;5040272;28;20634;-67
2023/06/30 08:42:06;;;;;;;12.53;8.37;;;;;;;;;;5043476;28;20214;-68
2023/06/30 08:44:35;;;;;;;13.93;8.77;;;;;;;;;;5054220;28;20557;-70
2023/06/30 08:47:03;;;;;;;14.73;8.47;;;;;;;;;;5056626;28;20349;-72
2023/06/30 08:49:31;;;;;;;14.07;8.93;;;;;;;;;;5058321;28;20301;-69
2023/06/30 08:52:01;;;;;;;14.70;9.70;;;;;;;;;;5059692;28;20212;-70
2023/06/30 08:54:31;;;;;;;14.27;9.00;;;;;;;;;;5059493;28;20302;-69
2023/06/30 08:57:00;;;;;;;13.77;8.70;;;;;;;;;;5059497;28;20725;-67
2023/06/30 08:59:28;;;;;;;16.27;9.40;;;;;;;;;;5059251;28;20731;-68
2023/06/30 09:01:57;;;;;;;18.13;9.30;;;;;;;;;;5039851;28;20265;-70
2023/06/30 09:04:26;;;;;;;12.60;7.97;;;;;;;;;;5039835;28;20210;-68
2023/06/30 09:06:54;;;;;;;15.67;8.33;;;;;;;;;;5041297;28;20209;-70
2023/06/30 09:09:26;;;;;;;16.70;9.10;;;;;;;;;;5039534;28;20210;-71
2023/06/30 09:11:54;;;;;;;15.00;8.40;;;;;;;;;;5046646;28;20227;-69
2023/06/30 09:14:22;;;;;;;14.00;8.13;;;;;;;;;;5059119;28;20207;-65
2023/06/30 09:16:50;;;;;;;13.87;8.00;;;;;;;;;;5059100;28;20235;-69
2023/06/30 09:19:18;;;;;;;18.27;8.83;;;;;;;;;;5058943;28;20626;-69
2023/06/30 09:21:46;;;;;;;14.23;8.10;;;;;;;;;;5059043;28;20704;-69
2023/06/30 09:24:13;;;;;;;12.57;8.83;;;;;;;;;;5058905;28;20295;-68
2023/06/30 09:26:43;;;;;;;15.30;7.60;;;;;;;;;;5050311;28;20267;-67
2023/06/30 09:29:11;;;;;;;11.17;7.77;;;;;;;;;;5039164;28;20239;-65
2023/06/30 09:31:39;;;;;;;15.20;8.80;;;;;;;;;;5038906;28;20315;-65
2023/06/30 09:34:08;;;;;;;12.87;7.53;;;;;;;;;;5053884;28;20242;-66
2023/06/30 09:36:37;;;;;;;11.00;7.87;;;;;;;;;;5056127;28;20279;-67
2023/06/30 09:39:08;;;;;;;14.80;7.43;;;;;;;;;;5057859;28;20642;-76
2023/06/30 09:41:36;;;;;;;8.67;6.60;;;;;;;;;;5057741;28;20221;-77
2023/06/30 09:44:05;;;;;;;11.70;7.13;;;;;;;;;;5052249;28;20237;-73
2023/06/30 09:46:33;;;;;;;13.60;7.50;;;;;;;;;;5038994;28;20293;-73
2023/06/30 09:49:04;;;;;;;11.80;7.03;;;;;;;;;;5038776;28;20567;-65
2023/06/30 09:51:32;;;;;;;9.77;5.87;;;;;;;;;;5038655;28;20227;-66
2023/06/30 09:54:00;;;;;;;10.33;6.63;;;;;;;;;;5038995;28;20207;-67
2023/06/30 09:56:29;;;;;;;13.50;7.63;;;;;;;;;;5039210;28;20291;-66
2023/06/30 09:58:57;;;;;;;10.90;6.97;;;;;;;;;;5047775;28;20246;-69
2023/06/30 10:01:26;;;;;;;11.73;6.47;;;;;;;;;;5047659;28;20728;-69
2023/06/30 10:03:55;;;;;;;12.83;6.87;;;;;;;;;;5038434;28;20208;-68
2023/06/30 10:06:24;;;;;;;9.73;6.40;;;;;;;;;;5038969;28;20299;-69
2023/06/30 10:08:53;;;;;;;10.90;6.63;;;;;;;;;;5038476;28;20239;-69
2023/06/30 10:11:22;;;;;;;9.27;6.73;;;;;;;;;;5040959;28;20730;-69
2023/06/30 10:13:50;;;;;;;10.10;6.37;;;;;;;;;;5058463;28;20274;-69
2023/06/30 10:16:19;;;;;;;8.27;5.87;;;;;;;;;;5058090;28;20213;-68
2023/06/30 10:18:50;;;;;;;9.87;6.20;;;;;;;;;;5058142;28;20657;-69
2023/06/30 10:21:18;;;;;;;7.17;5.53;;;;;;;;;;5058115;28;20315;-69
2023/06/30 10:23:46;;;;;;;8.13;5.50;;;;;;;;;;5058215;28;20208;-69
2023/06/30 10:26:15;;;;;;;11.77;5.47;;;;;;;;;;5058098;28;20219;-68
2023/06/30 10:28:43;;;;;;;8.17;5.20;;;;;;;;;;5058446;28;20217;-69
2023/06/30 10:31:11;;;;;;;8.00;4.70;;;;;;;;;;5057997;28;20223;-70
2023/06/30 10:33:39;;;;;;;4.43;3.80;;;;;;;;;;5057978;28;20265;-68
2023/06/30 10:36:08;;;;;;;6.23;4.10;;;;;;;;;;5057758;28;20245;-68
2023/06/30 10:38:37;;;;;;;6.17;4.03;;;;;;;;;;5057258;28;20207;-75
2023/06/30 10:41:16;;;;;;;5.57;3.87;;;;;;;;;;5056374;28;20230;-74
2023/06/30 10:44:05;;;;;;;3.77;2.70;;;;;;;;;;5057054;28;20204;-74
2023/06/30 10:46:46;;;;;;;3.67;2.47;;;;;;;;;;5054451;28;20208;-74
2023/06/30 10:49:18;;;;;;;3.70;3.03;;;;;;;;;;5054672;28;20200;-74
2023/06/30 10:51:48;;;;;;;4.90;3.30;;;;;;;;;;5054990;28;20716;-74
2023/06/30 10:54:22;;;;;;;3.60;2.43;;;;;;;;;;5054487;28;20209;-74
2023/06/30 10:56:50;;;;;;;3.63;2.70;;;;;;;;;;5055675;28;20558;-74
2023/06/30 10:59:24;;;;;;;4.70;2.60;;;;;;;;;;5056770;28;20235;-75
2023/06/30 11:02:11;;;;;;;3.03;2.73;;;;;;;;;;5054728;28;20208;-74
2023/06/30 11:04:39;;;;;;;3.30;2.33;;;;;;;;;;5054640;28;20569;-74
2023/06/30 11:07:10;;;;;;;4.00;2.40;;;;;;;;;;5055324;28;20201;-74
2023/06/30 11:10:05;;;;;;;3.87;2.70;;;;;;;;;;5054330;28;20225;-74
2023/06/30 11:12:49;;;;;;;8.77;2.80;;;;;;;;;;5032015;28;20212;-72
2023/06/30 11:15:27;;;;;;;2.57;2.20;;;;;;;;;;5051337;28;20291;-74
2023/06/30 11:17:59;;;;;;;2.03;1.70;;;;;;;;;;5052827;28;20232;-74
2023/06/30 11:20:27;;;;;;;4.17;2.20;;;;;;;;;;5055055;28;20221;-74
2023/06/30 11:22:57;;;;;;;2.20;2.00;;;;;;;;;;5053505;28;20199;-74
2023/06/30 11:25:25;;;;;;;1.90;1.77;;;;;;;;;;5054731;28;20273;-74
2023/06/30 11:27:53;;;;;;;4.23;2.27;;;;;;;;;;5056559;28;20285;-74
2023/06/30 11:30:21;;;;;;;1.70;1.60;;;;;;;;;;5055855;28;20226;-74
2023/06/30 11:32:54;;;;;;;3.50;1.63;;;;;;;;;;5052687;28;20233;-74
2023/06/30 11:35:22;;;;;;;2.57;1.67;;;;;;;;;;5054633;28;21767;-74
2023/06/30 11:37:51;;;;;;;2.87;1.87;;;;;;;;;;5054629;28;20205;-74
2023/06/30 11:40:21;;;;;;;3.73;1.50;;;;;;;;;;5056600;28;20226;-74
2023/06/30 11:42:49;;;;;;;1.77;1.43;;;;;;;;;;5054083;28;20199;-73
2023/06/30 11:45:20;;;;;;;3.60;1.67;;;;;;;;;;5054046;28;20197;-74
2023/06/30 11:47:50;;;;;;;1.77;1.50;;;;;;;;;;5057054;28;20209;-73
2023/06/30 11:50:18;;;;;;;1.80;1.63;;;;;;;;;;5061142;28;20225;-73
2023/06/30 11:52:48;;;;;;;2.87;1.73;;;;;;;;;;5060663;28;20214;-71
2023/06/30 11:55:17;;;;;;;2.90;2.07;;;;;;;;;;5058219;28;20227;-71
2023/06/30 11:57:54;;;;;;;4.97;1.90;;;;;;;;;;5057601;28;20198;-72
2023/06/30 12:00:23;;;;;;;1.40;1.30;;;;;;;;;;5056476;28;20226;-73
2023/06/30 12:02:50;;;;;;;3.23;1.60;;;;;;;;;;5059723;28;20244;-72
2023/06/30 12:05:21;;;;;;;1.83;1.63;;;;;;;;;;5059790;28;20209;-67
2023/06/30 12:07:49;;;;;;;2.33;1.40;;;;;;;;;;5059574;28;20233;-74
2023/06/30 12:10:17;;;;;;;2.60;1.50;;;;;;;;;;5060492;28;20223;-73
2023/06/30 12:12:56;;;;;;;3.13;1.33;;;;;;;;;;5059868;28;20222;-72
2023/06/30 12:15:24;;;;;;;2.33;1.60;;;;;;;;;;5059252;28;20198;-73
2023/06/30 12:17:54;;;;;;;1.77;1.33;;;;;;;;;;5058098;28;20204;-74
2023/06/30 12:20:22;;;;;;;1.43;1.30;;;;;;;;;;5060363;28;20318;-75
2023/06/30 12:22:54;;;;;;;4.33;1.40;;;;;;;;;;5060276;28;20676;-72
2023/06/30 12:25:26;;;;;;;1.73;1.37;;;;;;;;;;5060573;28;20229;-72
2023/06/30 12:27:55;;;;;;;3.17;1.30;;;;;;;;;;5059748;28;20675;-74
2023/06/30 12:30:23;;;;;;;3.53;1.30;;;;;;;;;;5059002;28;20296;-74
2023/06/30 12:32:58;;;;;;;4.90;1.30;;;;;;;;;;5060163;28;20333;-74
2023/06/30 12:35:29;;;;;;;2.20;1.50;;;;;;;;;;5059734;28;20216;-74
2023/06/30 12:37:58;;;;;;;2.83;1.20;;;;;;;;;;5058411;28;20730;-74
2023/06/30 12:40:27;;;;;;;4.83;1.47;;;;;;;;;;5057700;28;20230;-74
2023/06/30 12:42:57;;;;;;;2.07;1.20;;;;;;;;;;5040095;28;20211;-73
2023/06/30 12:45:25;;;;;;;6.43;1.60;;;;;;;;;;5055292;28;20293;-74
2023/06/30 12:47:52;;;;;;;1.03;0.90;;;;;;;;;;5060202;28;20233;-64
2023/06/30 12:50:20;;;;;;;1.93;1.43;;;;;;;;;;5059925;28;20222;-64
2023/06/30 12:52:48;;;;;;;2.73;1.00;;;;;;;;;;5060041;28;20683;-64
2023/06/30 12:55:16;;;;;;;1.83;1.73;;;;;;;;;;5060029;28;20300;-64
2023/06/30 12:57:44;;;;;;;1.00;1.00;;;;;;;;;;5059749;28;20215;-64
2023/06/30 13:00:14;;;;;;;0.87;0.80;;;;;;;;;;5054815;28;20229;-64
2023/06/30 13:02:42;;;;;;;1.17;1.07;;;;;;;;;;5040017;28;20215;-64
2023/06/30 13:05:10;;;;;;;0.90;0.90;;;;;;;;;;5039847;28;20217;-64
2023/06/30 13:07:39;;;;;;;0.90;0.90;;;;;;;;;;5039758;28;20234;-64
2023/06/30 13:10:08;;;;;;;0.93;0.93;;;;;;;;;;5039379;28;20306;-64
2023/06/30 13:12:39;;;;;;;2.87;1.23;;;;;;;;;;5039776;28;20239;-64
2023/06/30 13:15:08;;;;;;;1.83;1.00;;;;;;;;;;5046111;28;20214;-64
2023/06/30 13:17:37;;;;;;;2.43;1.00;;;;;;;;;;5059308;28;20612;-64
2023/06/30 13:20:06;;;;;;;1.80;1.00;;;;;;;;;;5059454;28;20226;-64
2023/06/30 13:22:34;;;;;;;1.37;1.20;;;;;;;;;;5058986;28;20202;-64
2023/06/30 13:25:06;;;;;;;1.67;1.10;;;;;;;;;;5059229;28;20557;-64
2023/06/30 13:27:34;;;;;;;1.00;1.00;;;;;;;;;;5059378;28;20229;-64
2023/06/30 13:30:02;;;;;;;2.60;1.13;;;;;;;;;;5059116;28;20249;-64
2023/06/30 13:32:30;;;;;;;2.10;1.00;;;;;;;;;;5058942;28;20246;-65
2023/06/30 13:34:59;;;;;;;1.90;0.80;;;;;;;;;;5058967;28;20635;-65
2023/06/30 13:37:27;;;;;;;0.97;0.93;;;;;;;;;;5058988;28;20214;-64
2023/06/30 13:39:55;;;;;;;2.20;1.00;;;;;;;;;;5058961;28;20683;-64
2023/06/30 13:42:24;;;;;;;1.10;1.00;;;;;;;;;;5040346;28;20219;-64
2023/06/30 13:44:52;;;;;;;1.33;1.07;;;;;;;;;;5038752;28;20239;-64
2023/06/30 13:47:19;;;;;;;2.90;1.13;;;;;;;;;;5038865;28;20207;-64
2023/06/30 13:49:47;;;;;;;1.27;1.00;;;;;;;;;;5038680;28;20227;-64
2023/06/30 13:52:16;;;;;;;0.90;0.90;;;;;;;;;;5038835;28;20207;-64
2023/06/30 13:54:44;;;;;;;1.23;1.10;;;;;;;;;;5038904;28;20261;-64
2023/06/30 13:57:12;;;;;;;1.17;0.90;;;;;;;;;;5038978;28;20214;-64
2023/06/30 13:59:40;;;;;;;1.33;1.07;;;;;;;;;;5052907;28;20206;-64
2023/06/30 14:02:08;;;;;;;1.97;1.30;;;;;;;;;;5055148;28;20315;-65
2023/06/30 14:04:35;;;;;;;2.20;1.00;;;;;;;;;;5058463;28;20291;-64
2023/06/30 14:07:04;;;;;;;1.73;1.20;;;;;;;;;;5058528;28;20256;-64
2023/06/30 14:09:33;;;;;;;5.13;1.70;;;;;;;;;;5058221;28;20203;-64
2023/06/30 14:12:01;;;;;;;3.13;1.07;;;;;;;;;;5057532;28;20208;-64
2023/06/30 14:14:29;;;;;;;1.40;1.00;;;;;;;;;;5058249;28;20555;-64
2023/06/30 14:16:57;;;;;;;1.30;0.80;;;;;;;;;;5057936;28;20210;-64
2023/06/30 14:19:25;;;;;;;1.30;1.20;;;;;;;;;;5058349;28;20204;-64
2023/06/30 14:21:52;;;;;;;1.20;1.13;;;;;;;;;;5058203;28;20224;-64
2023/06/30 14:24:20;;;;;;;2.40;1.50;;;;;;;;;;5058421;28;20297;-64
2023/06/30 14:26:49;;;;;;;2.20;1.57;;;;;;;;;;5058446;28;20203;-64
2023/06/30 14:29:17;;;;;;;1.20;1.10;;;;;;;;;;5057936;28;20601;-64
2023/06/30 14:31:45;;;;;;;1.20;1.10;;;;;;;;;;5057825;28;20281;-64
2023/06/30 14:34:13;;;;;;;1.43;1.00;;;;;;;;;;5058181;28;20211;-64
2023/06/30 14:36:41;;;;;;;0.97;0.80;;;;;;;;;;5058117;28;20218;-64
2023/06/30 14:39:09;;;;;;;1.20;1.10;;;;;;;;;;5058115;28;20207;-64
2023/06/30 14:41:37;;;;;;;0.80;0.80;;;;;;;;;;5049349;28;20227;-65
2023/06/30 14:44:14;;;;;;;0.93;0.90;;;;;;;;;;5038052;28;20212;-65
2023/06/30 14:46:42;;;;;;;2.77;1.20;;;;;;;;;;5037720;28;20250;-64